Time;durP1;ratioP1;P1;durP2;ratioP2;P2;SDS_P1;SDS_P2;PMS_P1;PMS_P2;Temp;Humidity;BMP_temperature;BMP_pressure;BME280_temperature;BME280_humidity;BME280_pressure;Samples;Min_cycle;Max_cycle;Signal;HPM_P1;HPM_P2
2020/12/06 00:09:29;;;;;;;34.75;16.73;;;1.90;99.90;;;;;;20823781;28;20044;-80
2020/12/06 00:19:29;;;;;;;;;;;1.90;99.90;;;;;;20824049;28;20033;-80
2020/12/06 00:29:30;;;;;;;29.70;14.10;;;2.00;99.90;;;;;;20847712;28;20257;-79
2020/12/06 00:39:31;;;;;;;27.93;14.73;;;2.20;99.90;;;;;;20879487;28;20107;-80
2020/12/06 00:49:32;;;;;;;34.25;15.93;;;2.20;99.90;;;;;;20872653;28;20064;-80
2020/12/06 00:59:33;;;;;;;29.73;14.43;;;2.20;99.90;;;;;;20903895;28;20102;-80
2020/12/06 01:09:34;;;;;;;30.88;14.65;;;2.10;99.90;;;;;;20920847;28;20430;-81
2020/12/06 01:19:35;;;;;;;30.88;14.77;;;2.10;99.90;;;;;;20898517;28;20033;-80
2020/12/06 01:29:36;;;;;;;29.90;14.48;;;2.00;99.90;;;;;;20903293;28;20052;-80
2020/12/06 01:39:37;;;;;;;25.92;12.93;;;2.00;99.90;;;;;;20930081;28;20386;-80
2020/12/06 01:49:38;;;;;;;27.25;13.35;;;2.10;99.90;;;;;;20880034;28;20407;-78
2020/12/06 01:59:39;;;;;;;25.02;12.13;;;2.20;99.90;;;;;;20898549;28;20072;-80
2020/12/06 02:09:39;;;;;;;23.60;10.93;;;2.20;99.90;;;;;;20895278;28;20103;-80
2020/12/06 02:19:41;;;;;;;33.65;15.63;;;2.20;99.90;;;;;;20906628;28;20097;-79
2020/12/06 02:29:42;;;;;;;41.65;18.55;;;2.10;99.90;;;;;;20948185;28;20032;-79
2020/12/06 02:39:43;;;;;;;41.13;18.50;;;2.10;99.90;;;;;;20953038;28;20372;-81
2020/12/06 02:49:44;;;;;;;39.80;16.93;;;2.10;99.90;;;;;;20931064;28;20793;-80
2020/12/06 02:59:45;;;;;;;47.10;19.37;;;2.10;99.90;;;;;;20912535;28;20374;-80
2020/12/06 03:09:45;;;;;;;41.67;17.58;;;2.00;99.90;;;;;;20911755;28;20108;-80
2020/12/06 03:19:46;;;;;;;;;;;2.00;99.90;;;;;;20896803;28;20112;-79
2020/12/06 03:29:47;;;;;;;50.83;20.03;;;1.90;99.90;;;;;;20940814;28;19912;-80
2020/12/06 03:39:47;;;;;;;;;;;1.90;99.90;;;;;;20933414;28;20378;-79
2020/12/06 03:49:50;;;;;;;41.83;16.90;;;1.90;99.90;;;;;;20932993;28;20425;-81
2020/12/06 03:59:51;;;;;;;39.00;16.90;;;1.90;99.90;;;;;;20873224;28;20527;-79
2020/12/06 04:09:51;;;;;;;;;;;2.00;99.90;;;;;;20884319;28;20085;-80
2020/12/06 04:19:52;;;;;;;45.65;17.42;;;2.00;99.90;;;;;;20897988;28;19920;-80
2020/12/06 04:29:53;;;;;;;;;;;2.00;99.90;;;;;;20868195;28;20458;-79
2020/12/06 04:39:54;;;;;;;36.63;16.30;;;1.90;99.90;;;;;;20901375;28;20429;-79
2020/12/06 04:49:58;;;;;;;;;;;2.00;99.90;;;;;;20900882;28;20294;-79
2020/12/06 05:00:09;;;;;;;38.22;14.18;;;1.80;99.90;;;;;;20872045;28;20009;-80
2020/12/06 05:10:10;;;;;;;33.97;13.70;;;1.80;99.90;;;;;;20897030;28;20040;-80
2020/12/06 05:20:10;;;;;;;;;;;1.80;99.90;;;;;;20868688;28;21323;-79
2020/12/06 05:30:11;;;;;;;31.60;13.00;;;1.70;99.90;;;;;;20816726;28;20070;-80
2020/12/06 05:40:13;;;;;;;;;;;1.70;99.90;;;;;;20817703;28;20033;-79
2020/12/06 05:50:14;;;;;;;25.37;11.23;;;1.70;99.90;;;;;;20834410;28;19920;-81
2020/12/06 06:00:14;;;;;;;;;;;1.70;99.90;;;;;;20823454;28;20037;-79
2020/12/06 06:10:18;;;;;;;37.57;14.17;;;1.50;99.90;;;;;;20866991;28;19916;-78
2020/12/06 06:20:19;;;;;;;31.75;13.00;;;1.50;99.90;;;;;;20840796;28;20705;-79
2020/12/06 06:30:22;;;;;;;30.48;13.48;;;1.30;99.90;;;;;;20828170;28;20128;-78
2020/12/06 06:40:27;;;;;;;33.10;12.55;;;1.30;99.90;;;;;;20856737;28;20044;-80
2020/12/06 06:50:29;;;;;;;26.00;12.52;;;1.40;99.90;;;;;;20874119;28;20033;-79
2020/12/06 07:00:30;;;;;;;28.30;11.48;;;1.40;99.90;;;;;;20842724;28;20061;-80
2020/12/06 07:10:32;;;;;;;40.42;17.13;;;1.40;99.90;;;;;;20828102;28;20079;-81
2020/12/06 07:20:33;;;;;;;24.85;12.30;;;1.40;99.90;;;;;;20829185;28;20038;-81
2020/12/06 07:30:34;;;;;;;;;;;1.50;99.90;;;;;;20827993;28;20036;-80
2020/12/06 07:40:35;;;;;;;28.42;12.20;;;1.50;99.90;;;;;;20827030;28;19968;-79
2020/12/06 07:50:43;;;;;;;;;;;1.50;99.90;;;;;;20844002;28;20040;-79
2020/12/06 08:00:44;;;;;;;17.38;7.57;;;1.60;99.90;;;;;;20825429;28;20003;-79
2020/12/06 08:10:52;;;;;;;;;;;1.80;99.90;;;;;;20810519;28;20103;-79
2020/12/06 08:20:54;;;;;;;35.60;16.52;;;2.00;99.90;;;;;;20825683;28;19967;-80
2020/12/06 08:30:55;;;;;;;37.33;17.65;;;2.10;99.90;;;;;;20849199;28;20029;-80
2020/12/06 08:40:57;;;;;;;;;;;2.00;99.90;;;;;;20885534;28;20099;-81
2020/12/06 08:50:58;;;;;;;46.95;21.27;;;1.90;99.90;;;;;;20859771;28;19913;-81
2020/12/06 09:01:02;;;;;;;;;;;2.10;99.90;;;;;;20872628;28;20519;-81
2020/12/06 09:11:03;;;;;;;24.70;12.23;;;2.10;99.90;;;;;;20906549;28;19963;-81
2020/12/06 09:21:05;;;;;;;19.57;9.83;;;2.90;99.90;;;;;;20923163;28;20029;-82
2020/12/06 09:31:06;;;;;;;19.45;10.27;;;3.90;99.90;;;;;;20904711;28;20511;-82
2020/12/06 09:41:11;;;;;;;20.63;9.48;;;3.40;99.90;;;;;;20903177;28;20025;-78
2020/12/06 09:51:12;;;;;;;15.85;9.73;;;3.90;99.90;;;;;;20917704;28;20041;-77
2020/12/06 10:01:13;;;;;;;20.30;10.25;;;3.60;99.90;;;;;;20906988;28;20025;-80
2020/12/06 10:11:14;;;;;;;20.00;11.57;;;3.10;99.90;;;;;;20893954;28;20047;-80
2020/12/06 10:21:15;;;;;;;25.47;12.83;;;3.00;99.90;;;;;;20902086;28;20029;-79
2020/12/06 10:31:18;;;;;;;17.23;9.18;;;3.10;99.90;;;;;;20862289;23;20047;-76
2020/12/06 10:41:19;;;;;;;16.65;8.98;;;3.00;99.90;;;;;;20989043;28;20068;-76
2020/12/06 10:51:20;;;;;;;17.10;8.07;;;3.20;99.90;;;;;;20968664;28;20039;-78
2020/12/06 11:01:29;;;;;;;15.10;8.25;;;3.40;99.90;;;;;;20920524;28;20441;-76
2020/12/06 11:11:30;;;;;;;13.30;7.53;;;3.30;99.90;;;;;;20961624;28;20036;-76
2020/12/06 11:21:30;;;;;;;23.03;9.10;;;3.30;99.90;;;;;;20954817;28;20492;-76
2020/12/06 11:31:31;;;;;;;14.20;7.57;;;3.30;99.90;;;;;;20934878;28;20036;-77
2020/12/06 11:41:32;;;;;;;14.67;7.47;;;3.40;99.90;;;;;;20940365;28;20033;-77
2020/12/06 11:51:33;;;;;;;13.70;7.93;;;3.40;99.90;;;;;;20917666;28;20102;-77
2020/12/06 12:01:34;;;;;;;15.93;8.13;;;3.40;99.90;;;;;;20895504;28;20052;-76
2020/12/06 12:11:34;;;;;;;13.80;7.97;;;3.50;99.90;;;;;;20944306;28;20032;-76
2020/12/06 12:21:35;;;;;;;12.87;6.43;;;3.50;99.90;;;;;;20961184;28;20040;-76
2020/12/06 12:31:36;;;;;;;18.47;8.37;;;3.50;99.90;;;;;;20975797;28;20033;-76
2020/12/06 12:41:37;;;;;;;13.38;6.93;;;3.70;99.90;;;;;;20965593;28;20043;-76
2020/12/06 12:51:38;;;;;;;26.80;12.10;;;3.80;99.90;;;;;;20946328;28;20546;-76
2020/12/06 13:01:39;;;;;;;14.77;7.40;;;3.70;99.90;;;;;;20890315;28;20021;-77
2020/12/06 13:11:40;;;;;;;14.30;7.00;;;3.70;99.90;;;;;;20946198;28;20829;-77
2020/12/06 13:21:41;;;;;;;21.90;11.07;;;3.50;99.90;;;;;;20954620;28;20082;-76
2020/12/06 13:31:42;;;;;;;17.87;10.03;;;3.40;99.90;;;;;;20909445;28;20033;-77
2020/12/06 13:41:42;;;;;;;15.47;7.73;;;3.40;99.90;;;;;;20923160;28;20037;-79
2020/12/06 13:51:43;;;;;;;15.30;8.30;;;3.50;99.90;;;;;;20891544;28;20036;-76
2020/12/06 14:01:48;;;;;;;9.50;5.27;;;3.90;99.90;;;;;;20869420;28;20037;-76
2020/12/06 14:11:56;;;;;;;15.32;7.72;;;4.60;99.90;;;;;;20887540;28;20714;-77
2020/12/06 14:21:57;;;;;;;17.13;8.77;;;4.50;99.90;;;;;;20893860;28;20048;-76
2020/12/06 14:31:57;;;;;;;14.97;6.57;;;3.80;99.90;;;;;;20903647;28;20040;-76
2020/12/06 14:41:58;;;;;;;14.10;7.60;;;3.70;99.90;;;;;;20897828;28;20090;-77
2020/12/06 14:51:59;;;;;;;15.53;6.93;;;3.80;99.90;;;;;;20901828;28;20491;-76
2020/12/06 15:02:00;;;;;;;16.33;7.83;;;3.50;99.90;;;;;;20901475;28;20521;-77
2020/12/06 15:12:01;;;;;;;24.83;12.87;;;3.50;99.90;;;;;;20900842;28;20744;-76
2020/12/06 15:22:01;;;;;;;21.80;11.53;;;3.50;99.90;;;;;;21749584;23;20055;-76
2020/12/06 15:32:02;;;;;;;20.73;10.67;;;3.50;99.90;;;;;;21054434;28;20032;-76
2020/12/06 15:42:03;;;;;;;18.90;10.07;;;3.60;99.90;;;;;;21025002;28;20155;-77
2020/12/06 15:52:05;;;;;;;17.40;9.30;;;3.60;99.90;;;;;;21062837;28;20262;-76
2020/12/06 16:02:06;;;;;;;20.15;11.35;;;3.50;99.90;;;;;;21061095;28;20418;-76
2020/12/06 16:12:07;;;;;;;32.83;15.13;;;3.50;99.90;;;;;;21064296;28;20024;-77
2020/12/06 16:22:08;;;;;;;33.07;17.00;;;3.30;99.90;;;;;;21062897;28;20043;-75
2020/12/06 16:32:09;;;;;;;30.47;14.40;;;3.20;99.90;;;;;;21062712;28;20039;-75
2020/12/06 16:42:10;;;;;;;34.70;18.27;;;3.20;99.90;;;;;;21059993;28;20036;-76
2020/12/06 16:52:10;;;;;;;37.13;17.57;;;3.30;99.90;;;;;;21033638;28;20025;-76
2020/12/06 17:02:11;;;;;;;39.40;17.93;;;3.00;99.90;;;;;;21021109;28;20035;-76
2020/12/06 17:12:12;;;;;;;25.40;13.10;;;3.20;99.90;;;;;;20991015;28;20034;-76
2020/12/06 17:22:13;;;;;;;18.13;10.93;;;3.10;99.90;;;;;;21022024;28;20078;-75
2020/12/06 17:32:16;;;;;;;22.02;10.30;;;3.00;99.90;;;;;;21055457;28;20140;-75
2020/12/06 17:42:17;;;;;;;20.92;10.48;;;3.10;99.90;;;;;;20977416;28;20305;-75
2020/12/06 17:52:18;;;;;;;14.20;7.53;;;3.10;99.90;;;;;;20971086;28;20033;-75
2020/12/06 18:02:18;;;;;;;18.57;9.50;;;2.90;99.90;;;;;;20978632;28;20055;-75
2020/12/06 18:12:19;;;;;;;15.70;8.87;;;2.80;99.90;;;;;;21040463;28;20505;-76
2020/12/06 18:22:20;;;;;;;19.80;9.23;;;2.60;99.90;;;;;;21047834;28;20036;-75
2020/12/06 18:32:21;;;;;;;18.20;9.03;;;2.60;99.90;;;;;;20970404;28;20035;-75
2020/12/06 18:42:22;;;;;;;15.93;8.45;;;2.40;99.90;;;;;;20945137;28;21159;-75
2020/12/06 18:52:23;;;;;;;17.17;8.13;;;2.40;99.90;;;;;;20977367;28;20510;-75
2020/12/06 19:02:23;;;;;;;13.90;7.20;;;2.40;99.90;;;;;;21045859;28;20429;-76
2020/12/06 19:12:25;;;;;;;14.20;7.80;;;2.50;99.90;;;;;;21060706;28;20521;-76
2020/12/06 19:22:25;;;;;;;;;;;2.70;99.90;;;;;;21069097;28;20035;-76
2020/12/06 19:32:26;;;;;;;13.18;7.90;;;2.50;99.90;;;;;;21065015;28;20267;-75
2020/12/06 19:42:27;;;;;;;17.80;8.70;;;2.60;99.90;;;;;;21065127;28;20482;-75
2020/12/06 19:52:28;;;;;;;12.68;7.10;;;2.50;99.90;;;;;;21060070;28;20140;-75
2020/12/06 20:02:29;;;;;;;10.40;6.00;;;2.50;99.90;;;;;;21066066;28;20401;-76
2020/12/06 20:12:30;;;;;;;13.30;6.97;;;2.50;99.90;;;;;;21066794;28;20039;-78
2020/12/06 20:22:33;;;;;;;12.03;6.73;;;2.50;99.90;;;;;;21079332;28;20032;-77
2020/12/06 20:32:35;;;;;;;12.90;7.55;;;2.40;99.90;;;;;;21061160;28;20688;-76
2020/12/06 20:42:36;;;;;;;14.68;8.35;;;2.20;99.90;;;;;;21074205;28;20121;-77
2020/12/06 20:52:37;;;;;;;15.90;8.50;;;2.00;99.90;;;;;;21072806;28;20061;-78
2020/12/06 21:02:38;;;;;;;16.58;9.30;;;1.60;99.90;;;;;;21024833;28;20919;-77
2020/12/06 21:12:39;;;;;;;16.92;8.32;;;1.40;99.90;;;;;;21039949;28;20032;-78
2020/12/06 21:22:40;;;;;;;21.20;10.02;;;1.40;99.90;;;;;;21039742;28;20029;-77
2020/12/06 21:32:41;;;;;;;;;;;1.40;99.90;;;;;;21057955;28;20051;-77
2020/12/06 21:42:42;;;;;;;18.33;9.45;;;1.40;99.90;;;;;;21067349;28;19957;-78
2020/12/06 21:52:43;;;;;;;;;;;1.30;99.90;;;;;;21094551;28;20024;-77
2020/12/06 22:02:44;;;;;;;18.17;9.82;;;1.10;99.90;;;;;;21098950;28;20333;-78
2020/12/06 22:12:45;;;;;;;;;;;1.30;99.90;;;;;;21102685;28;20059;-78
2020/12/06 22:22:46;;;;;;;22.98;10.88;;;1.50;99.90;;;;;;21101399;28;19911;-77
2020/12/06 22:32:47;;;;;;;;;;;1.30;99.90;;;;;;21093441;28;20047;-78
2020/12/06 22:42:48;;;;;;;16.63;9.03;;;1.50;99.90;;;;;;21086734;28;19920;-77
2020/12/06 22:52:48;;;;;;;21.67;10.52;;;1.50;99.90;;;;;;21051640;28;20768;-77
2020/12/06 23:02:49;;;;;;;;;;;1.20;99.90;;;;;;21012156;28;20048;-77
2020/12/06 23:12:50;;;;;;;22.50;10.20;;;1.30;99.90;;;;;;21015525;28;19934;-78
2020/12/06 23:22:51;;;;;;;20.65;10.43;;;1.30;99.90;;;;;;21015386;28;20287;-77
2020/12/06 23:32:52;;;;;;;19.00;9.85;;;1.50;99.90;;;;;;21036301;28;20048;-77
2020/12/06 23:42:53;;;;;;;20.77;11.02;;;1.50;99.90;;;;;;21024676;28;20064;-77
2020/12/06 23:52:53;;;;;;;18.53;10.23;;;1.60;99.90;;;;;;21041607;28;20092;-77
